createdAt,value
2023-01-17T00:29:38.924Z,14.75
2023-01-17T00:32:07.492Z,15.77
2023-01-17T00:34:35.657Z,16.33
2023-01-17T00:37:04.313Z,15.48
2023-01-17T00:39:32.414Z,16.38
2023-01-17T00:42:00.914Z,16.58
2023-01-17T00:44:57.383Z,16.42
2023-01-17T00:47:54.128Z,17.20
2023-01-17T00:50:41.814Z,17.85
2023-01-17T00:53:33.184Z,16.77
2023-01-17T00:56:20.984Z,16.80
2023-01-17T00:59:08.574Z,16.13
2023-01-17T01:01:55.495Z,17.77
2023-01-17T01:04:42.648Z,17.48
2023-01-17T01:07:29.512Z,17.40
2023-01-17T01:10:16.558Z,16.95
2023-01-17T01:13:04.500Z,17.63
2023-01-17T01:15:51.812Z,18.50
2023-01-17T01:18:38.671Z,18.23
2023-01-17T01:21:25.726Z,19.50
2023-01-17T01:24:12.444Z,18.70
2023-01-17T01:26:59.534Z,20.00
2023-01-17T01:29:46.185Z,20.08
2023-01-17T01:32:33.336Z,18.95
2023-01-17T01:35:01.622Z,18.85
2023-01-17T01:37:31.796Z,18.52
2023-01-17T01:40:00.061Z,18.73
2023-01-17T01:42:28.653Z,17.58
2023-01-17T01:45:07.180Z,16.10
2023-01-17T01:47:38.309Z,17.70
2023-01-17T01:50:09.311Z,16.92
2023-01-17T01:52:43.323Z,18.10
2023-01-17T01:55:42.323Z,19.13
2023-01-17T01:58:15.308Z,18.05
2023-01-17T02:00:43.702Z,18.10
2023-01-17T02:03:16.506Z,17.83
2023-01-17T02:05:45.276Z,17.45
2023-01-17T02:08:17.327Z,17.92
2023-01-17T02:10:46.284Z,17.52
2023-01-17T02:13:19.207Z,16.80
2023-01-17T02:16:18.522Z,16.75
2023-01-17T02:18:53.238Z,18.38
2023-01-17T02:21:23.277Z,17.27
2023-01-17T02:24:09.932Z,16.75
2023-01-17T02:26:58.483Z,16.75
2023-01-17T02:29:42.371Z,17.80
2023-01-17T02:32:25.861Z,17.45
2023-01-17T02:35:05.043Z,16.80
2023-01-17T02:38:03.848Z,17.52
2023-01-17T02:40:39.663Z,17.20
2023-01-17T02:43:14.822Z,18.02
2023-01-17T02:45:44.015Z,17.77
2023-01-17T02:48:15.267Z,17.58
2023-01-17T02:51:16.904Z,16.90
2023-01-17T02:53:51.607Z,17.58
2023-01-17T02:56:49.951Z,17.15
2023-01-17T02:59:38.569Z,16.77
2023-01-17T03:02:21.308Z,18.40
2023-01-17T03:05:05.398Z,17.42
2023-01-17T03:07:35.204Z,17.33
2023-01-17T03:10:05.684Z,17.35
2023-01-17T03:12:37.484Z,17.25
2023-01-17T03:15:11.977Z,18.02
2023-01-17T03:17:52.057Z,16.83
2023-01-17T03:20:22.565Z,17.10
2023-01-17T03:22:51.607Z,18.38
2023-01-17T03:25:19.819Z,17.55
2023-01-17T03:27:48.432Z,17.17
2023-01-17T03:30:17.811Z,17.25
2023-01-17T03:32:46.422Z,17.30
2023-01-17T03:35:15.236Z,17.60
2023-01-17T03:37:53.226Z,18.00
2023-01-17T03:40:21.448Z,18.05
2023-01-17T03:43:14.982Z,18.15
2023-01-17T03:45:43.284Z,17.15
2023-01-17T03:48:12.254Z,18.27
2023-01-17T03:50:43.317Z,18.27
2023-01-17T03:53:12.004Z,19.17
2023-01-17T03:55:40.188Z,18.00
2023-01-17T03:58:08.778Z,18.60
2023-01-17T04:00:37.120Z,20.65
2023-01-17T04:03:05.814Z,20.33
2023-01-17T04:05:34.395Z,21.17
2023-01-17T04:08:03.558Z,19.58
2023-01-17T04:10:31.868Z,19.70
2023-01-17T04:13:00.474Z,20.30
2023-01-17T04:15:28.917Z,20.38
2023-01-17T04:17:58.009Z,18.88
2023-01-17T04:20:35.986Z,19.83
2023-01-17T04:23:07.461Z,19.33
2023-01-17T04:25:35.835Z,19.67
2023-01-17T04:28:05.155Z,20.40
2023-01-17T04:30:34.139Z,21.35
2023-01-17T04:33:03.453Z,21.45
2023-01-17T04:35:36.113Z,20.52
2023-01-17T04:38:07.786Z,19.73
2023-01-17T04:41:00.990Z,20.25
2023-01-17T04:43:29.634Z,19.05
2023-01-17T04:45:58.670Z,19.40
2023-01-17T04:49:00.471Z,19.65
2023-01-17T04:51:39.781Z,20.83
2023-01-17T04:54:16.831Z,20.38
2023-01-17T04:57:42.418Z,20.70
2023-01-17T05:00:27.457Z,21.13
2023-01-17T05:03:11.726Z,21.45
2023-01-17T05:05:43.880Z,22.25
2023-01-17T05:08:19.981Z,22.23
2023-01-17T05:10:56.883Z,20.30
2023-01-17T05:13:28.139Z,21.27
2023-01-17T05:15:59.877Z,22.13
2023-01-17T05:18:28.322Z,21.98
2023-01-17T05:21:02.278Z,19.77
2023-01-17T05:23:32.396Z,23.45
2023-01-17T05:26:03.609Z,23.98
2023-01-17T05:28:41.037Z,22.30
2023-01-17T05:31:09.654Z,21.88
2023-01-17T05:33:37.962Z,23.45
2023-01-17T05:36:27.299Z,21.17
2023-01-17T05:38:55.665Z,21.55
2023-01-17T05:41:24.233Z,20.92
2023-01-17T05:43:52.428Z,22.05
2023-01-17T05:46:21.159Z,23.25
2023-01-17T05:48:49.447Z,24.35
2023-01-17T05:51:17.989Z,22.10
2023-01-17T05:53:46.224Z,22.33
2023-01-17T05:56:14.745Z,20.33
2023-01-17T05:58:43.072Z,18.50
2023-01-17T06:01:11.811Z,18.98
2023-01-17T06:03:40.071Z,20.48
2023-01-17T06:06:08.754Z,18.63
2023-01-17T06:08:37.293Z,18.85
2023-01-17T06:11:09.013Z,19.95
2023-01-17T06:13:37.397Z,19.92
2023-01-17T06:16:06.249Z,19.35
2023-01-17T06:18:34.644Z,20.58
2023-01-17T06:21:03.224Z,20.17
2023-01-17T06:23:31.565Z,20.33
2023-01-17T06:26:03.849Z,21.77
2023-01-17T06:31:05.976Z,22.02
2023-01-17T06:33:34.606Z,21.05
2023-01-17T06:36:03.630Z,21.55
2023-01-17T06:38:32.174Z,21.33
2023-01-17T06:41:04.806Z,22.42
2023-01-17T06:43:35.002Z,22.15
2023-01-17T06:46:03.591Z,21.60
2023-01-17T06:48:31.863Z,19.88
2023-01-17T06:51:00.436Z,20.10
2023-01-17T06:53:28.744Z,19.83
2023-01-17T06:55:57.861Z,20.63
2023-01-17T06:58:26.117Z,20.55
2023-01-17T07:00:54.871Z,20.35
2023-01-17T07:03:25.990Z,20.95
2023-01-17T07:05:54.753Z,21.13
2023-01-17T07:08:23.003Z,21.35
2023-01-17T07:10:51.773Z,21.17
2023-01-17T07:13:20.068Z,20.52
2023-01-17T07:15:48.656Z,23.17
2023-01-17T07:18:20.765Z,21.85
2023-01-17T07:20:56.251Z,20.30
2023-01-17T07:23:24.779Z,20.30
2023-01-17T07:25:54.910Z,20.00
2023-01-17T07:28:24.074Z,20.80
2023-01-17T07:30:53.149Z,21.25
2023-01-17T07:33:21.796Z,22.88
2023-01-17T07:35:50.445Z,25.13
2023-01-17T07:38:20.147Z,23.52
2023-01-17T07:40:48.748Z,20.80
2023-01-17T07:43:17.423Z,22.65
2023-01-17T07:45:51.054Z,21.40
2023-01-17T07:48:21.539Z,22.25
2023-01-17T07:50:58.209Z,21.45
2023-01-17T07:53:29.362Z,21.85
2023-01-17T07:56:04.826Z,21.20
2023-01-17T07:58:34.389Z,20.80
2023-01-17T08:01:05.221Z,21.92
2023-01-17T08:03:36.661Z,19.50
2023-01-17T08:06:06.791Z,21.13
2023-01-17T08:08:35.064Z,21.95
2023-01-17T08:11:03.662Z,20.55
2023-01-17T08:13:31.841Z,20.42
2023-01-17T08:16:02.569Z,20.60
2023-01-17T08:18:31.025Z,20.95
2023-01-17T08:20:59.573Z,20.88
2023-01-17T08:23:28.249Z,20.42
2023-01-17T08:26:01.338Z,18.60
2023-01-17T08:28:29.679Z,19.52
2023-01-17T08:30:58.445Z,18.90
2023-01-17T08:33:27.361Z,20.73
2023-01-17T08:35:56.045Z,19.35
2023-01-17T08:38:24.833Z,18.73
2023-01-17T08:40:53.502Z,17.90
2023-01-17T08:43:21.793Z,18.27
2023-01-17T08:45:50.570Z,16.90
2023-01-17T08:48:19.006Z,18.67
2023-01-17T08:50:47.485Z,17.35
2023-01-17T08:53:16.617Z,17.95
2023-01-17T08:55:45.438Z,15.52
2023-01-17T08:58:14.072Z,15.55
2023-01-17T09:00:42.648Z,15.60
2023-01-17T09:03:14.644Z,15.60
2023-01-17T09:05:43.342Z,14.00
2023-01-17T09:08:11.622Z,14.05
2023-01-17T09:10:40.234Z,13.32
2023-01-17T09:13:08.844Z,16.65
2023-01-17T09:15:37.426Z,13.82
2023-01-17T09:18:05.752Z,13.23
2023-01-17T09:20:34.311Z,11.88
2023-01-17T09:23:04.433Z,12.65
2023-01-17T09:25:33.094Z,12.48
2023-01-17T09:28:01.302Z,13.10
2023-01-17T09:30:29.878Z,12.00
2023-01-17T09:32:58.166Z,12.10
2023-01-17T09:35:26.741Z,15.82
2023-01-17T09:37:57.205Z,10.93
2023-01-17T09:40:26.087Z,12.68
2023-01-17T09:43:02.608Z,12.27
2023-01-17T09:45:32.885Z,12.05
2023-01-17T09:48:06.804Z,11.15
2023-01-17T09:51:00.819Z,10.95
2023-01-17T09:53:34.215Z,11.65
2023-01-17T09:56:21.355Z,11.50
2023-01-17T09:59:18.568Z,10.38
2023-01-17T10:02:02.087Z,11.05
2023-01-17T10:04:38.633Z,10.40
2023-01-17T10:07:13.250Z,9.70
2023-01-17T10:10:05.693Z,9.70
2023-01-17T10:12:44.714Z,9.65
2023-01-17T10:15:37.777Z,9.52
2023-01-17T10:18:29.939Z,10.18
2023-01-17T10:21:27.152Z,9.73
2023-01-17T10:24:24.860Z,10.43
2023-01-17T10:26:56.431Z,8.75
2023-01-17T10:32:00.414Z,9.00
2023-01-17T10:34:50.263Z,9.32
2023-01-17T10:37:23.268Z,8.25
2023-01-17T10:39:56.332Z,7.72
2023-01-17T10:42:50.994Z,8.40
2023-01-17T10:45:28.998Z,8.38
2023-01-17T10:48:23.157Z,6.32
2023-01-17T10:51:08.028Z,6.93
2023-01-17T10:53:54.874Z,8.23
2023-01-17T10:56:27.838Z,7.57
2023-01-17T10:59:19.202Z,7.30
2023-01-17T11:01:50.288Z,5.80
2023-01-17T11:04:22.828Z,6.63
2023-01-17T11:07:13.443Z,6.60
2023-01-17T11:09:47.517Z,6.70
2023-01-17T11:12:18.602Z,7.70
2023-01-17T11:15:22.924Z,7.85
2023-01-17T11:18:05.924Z,7.20
2023-01-17T11:20:38.743Z,7.75
2023-01-17T11:23:15.602Z,7.70
2023-01-17T11:26:04.829Z,8.20
2023-01-17T11:28:38.578Z,5.95
2023-01-17T11:31:24.962Z,6.00
2023-01-17T11:34:24.213Z,6.80
2023-01-17T11:37:19.528Z,6.30
2023-01-17T11:39:48.342Z,6.03
2023-01-17T11:42:38.358Z,5.32
2023-01-17T11:45:34.748Z,5.82
2023-01-17T11:48:09.191Z,6.75
2023-01-17T11:50:58.935Z,5.95
2023-01-17T11:53:49.299Z,5.90
2023-01-17T11:56:29.373Z,5.32
2023-01-17T11:59:30.354Z,4.15
2023-01-17T12:02:33.684Z,5.68
2023-01-17T12:05:05.091Z,5.38
2023-01-17T12:07:52.225Z,5.30
2023-01-17T12:10:38.434Z,4.65
2023-01-17T12:13:40.718Z,4.65
2023-01-17T12:21:20.335Z,4.20
2023-01-17T12:23:49.012Z,4.53
2023-01-17T12:26:40.378Z,4.05
2023-01-17T12:29:32.014Z,3.72
2023-01-17T12:32:09.505Z,3.80
2023-01-17T12:34:47.199Z,3.90
2023-01-17T12:37:21.887Z,4.20
2023-01-17T12:39:58.703Z,3.70
2023-01-17T12:42:36.262Z,3.80
2023-01-17T12:45:09.935Z,2.67
2023-01-17T12:47:44.426Z,3.30
2023-01-17T12:50:32.615Z,3.55
2023-01-17T12:54:00.360Z,3.50
2023-01-17T12:56:41.252Z,3.67
2023-01-17T12:59:41.251Z,3.70
2023-01-17T13:02:39.496Z,3.70
2023-01-17T13:05:23.926Z,3.85
2023-01-17T13:08:18.138Z,3.10
2023-01-17T13:11:08.269Z,3.50
2023-01-17T13:13:37.067Z,2.80
2023-01-17T13:16:15.284Z,3.03
2023-01-17T13:18:49.318Z,3.53
2023-01-17T13:21:36.377Z,4.00
2023-01-17T13:24:19.305Z,4.35
2023-01-17T13:26:56.654Z,3.50
2023-01-17T13:29:40.282Z,4.28
2023-01-17T13:32:27.746Z,3.88
2023-01-17T13:35:21.073Z,4.30
2023-01-17T13:38:21.786Z,5.10
2023-01-17T13:41:17.758Z,4.30
2023-01-17T13:44:06.190Z,4.10
2023-01-17T13:47:01.650Z,4.15
2023-01-17T13:49:29.993Z,3.80
2023-01-17T13:56:31.788Z,3.60
2023-01-17T13:59:51.663Z,3.30
2023-01-17T14:02:46.639Z,3.17
2023-01-17T14:05:24.068Z,3.60
2023-01-17T14:07:52.622Z,3.17
2023-01-17T14:10:37.035Z,3.08
2023-01-17T14:13:43.738Z,3.38
2023-01-17T14:16:37.758Z,3.50
2023-01-17T14:19:36.330Z,3.50
2023-01-17T14:22:29.301Z,4.65
2023-01-17T14:25:28.633Z,6.53
2023-01-17T14:28:01.487Z,5.55
2023-01-17T14:31:23.296Z,7.80
2023-01-17T14:33:52.065Z,6.85
2023-01-17T14:36:30.534Z,6.53
2023-01-17T14:38:58.940Z,6.35
2023-01-17T14:42:17.649Z,5.10
2023-01-17T14:44:48.605Z,4.30
2023-01-17T14:47:17.921Z,4.30
2023-01-17T14:49:46.255Z,5.00
2023-01-17T14:52:17.962Z,6.38
2023-01-17T14:54:52.231Z,7.07
2023-01-17T14:57:34.059Z,8.20
2023-01-17T15:00:18.574Z,4.90
2023-01-17T15:02:48.723Z,5.30
2023-01-17T15:05:25.764Z,5.40
2023-01-17T15:08:21.025Z,7.00
2023-01-17T15:11:17.940Z,8.88
2023-01-17T15:14:43.457Z,7.65
2023-01-17T15:17:24.983Z,10.85
2023-01-17T15:20:03.235Z,23.52
2023-01-17T15:22:31.865Z,9.20
2023-01-17T15:25:09.224Z,5.35
2023-01-17T15:28:30.483Z,4.95
2023-01-17T15:31:11.264Z,5.88
2023-01-17T15:33:45.705Z,5.35
2023-01-17T15:36:38.698Z,4.07
2023-01-17T15:39:39.096Z,5.43
2023-01-17T15:42:38.673Z,5.93
2023-01-17T15:45:39.176Z,4.28
2023-01-17T15:48:40.709Z,3.55
2023-01-17T15:51:45.549Z,4.40
2023-01-17T15:55:18.130Z,4.00
2023-01-17T15:58:23.432Z,5.30
2023-01-17T16:01:03.294Z,4.18
2023-01-17T16:03:37.075Z,4.40
2023-01-17T16:06:53.137Z,2.88
2023-01-17T16:09:26.058Z,3.38
2023-01-17T16:15:13.264Z,4.60
2023-01-17T16:17:46.777Z,5.07
2023-01-17T16:20:49.623Z,4.53
2023-01-17T16:26:50.627Z,5.97
2023-01-17T16:29:23.845Z,5.13
2023-01-17T16:32:01.935Z,5.43
2023-01-17T16:34:38.399Z,4.53
2023-01-17T16:37:43.333Z,4.70
2023-01-17T16:40:25.104Z,3.80
2023-01-17T16:42:59.685Z,5.67
2023-01-17T16:45:32.104Z,3.20
2023-01-17T16:48:02.502Z,3.50
2023-01-17T16:50:53.075Z,4.20
2023-01-17T16:53:35.567Z,3.92
2023-01-17T17:17:02.427Z,4.75
2023-01-17T17:24:06.023Z,6.65
2023-01-17T17:34:36.842Z,4.93
2023-01-17T17:37:30.196Z,5.25
2023-01-17T17:39:58.992Z,3.78
2023-01-17T17:42:30.414Z,4.72
2023-01-17T17:44:59.762Z,5.38
2023-01-17T17:47:30.553Z,6.35
2023-01-17T17:50:00.541Z,6.57
2023-01-17T17:52:54.006Z,7.82
2023-01-17T17:55:22.638Z,6.72
2023-01-17T17:57:53.623Z,7.65
2023-01-17T18:00:23.249Z,5.78
2023-01-17T18:02:51.571Z,5.10
2023-01-17T18:05:20.315Z,5.95
2023-01-17T18:07:50.947Z,6.35
2023-01-17T18:10:19.801Z,7.45
2023-01-17T18:13:12.966Z,10.00
2023-01-17T18:15:42.882Z,12.40
2023-01-17T18:18:20.169Z,13.65
2023-01-17T18:20:48.903Z,13.35
2023-01-17T18:23:35.263Z,14.23
2023-01-17T18:26:21.116Z,17.00
2023-01-17T18:28:52.031Z,19.77
2023-01-17T18:31:24.542Z,15.50
2023-01-17T18:33:58.251Z,19.42
2023-01-17T18:36:31.490Z,20.10
2023-01-17T18:39:11.112Z,24.17
2023-01-17T18:41:43.137Z,23.77
2023-01-17T18:44:22.166Z,17.27
2023-01-17T18:47:02.212Z,11.38
2023-01-17T18:49:35.284Z,9.75
2023-01-17T18:52:11.006Z,21.88
2023-01-17T18:54:50.320Z,25.05
2023-01-17T18:57:28.694Z,29.98
2023-01-17T19:00:02.240Z,27.35
2023-01-17T19:02:40.248Z,11.75
2023-01-17T19:05:18.102Z,7.05
2023-01-17T19:08:17.939Z,6.72
2023-01-17T19:10:53.902Z,5.90
2023-01-17T19:13:52.549Z,6.80
2023-01-17T19:16:32.260Z,6.28
2023-01-17T19:19:33.387Z,6.78
2023-01-17T19:22:16.292Z,7.38
2023-01-17T19:24:44.770Z,11.93
2023-01-17T19:27:14.415Z,12.60
2023-01-17T19:29:43.030Z,11.10
2023-01-17T19:32:12.496Z,11.15
2023-01-17T19:34:41.349Z,11.98
2023-01-17T19:37:20.067Z,12.93
2023-01-17T19:39:54.118Z,14.70
2023-01-17T19:42:35.047Z,12.25
2023-01-17T19:45:29.161Z,12.90
2023-01-17T19:48:06.301Z,16.48
2023-01-17T19:50:39.860Z,16.77
2023-01-17T19:53:11.164Z,17.00
2023-01-17T19:55:42.499Z,15.88
2023-01-17T19:58:13.085Z,12.80
2023-01-17T20:03:49.019Z,13.40
2023-01-17T20:06:29.027Z,14.45
2023-01-17T20:08:58.877Z,13.98
2023-01-17T20:11:30.684Z,12.55
2023-01-17T20:14:00.594Z,10.18
2023-01-17T20:16:33.235Z,10.40
2023-01-17T20:19:06.532Z,16.15
2023-01-17T20:21:37.996Z,19.83
2023-01-17T20:24:11.198Z,22.45
2023-01-17T20:26:41.054Z,22.58
2023-01-17T20:29:15.917Z,24.85
2023-01-17T20:31:45.718Z,15.20
2023-01-17T20:36:59.668Z,17.90
2023-01-17T20:39:29.602Z,17.48
2023-01-17T20:42:10.559Z,19.35
2023-01-17T20:44:42.737Z,21.75
2023-01-17T20:48:07.553Z,27.35
2023-01-17T20:50:37.014Z,24.48
2023-01-17T20:53:06.083Z,16.05
2023-01-17T20:55:43.805Z,18.08
2023-01-17T21:09:25.566Z,21.65
2023-01-17T21:12:01.095Z,26.90
2023-01-17T21:14:30.674Z,33.58
2023-01-17T21:17:02.660Z,33.70
2023-01-17T21:19:57.400Z,36.83
2023-01-17T21:22:29.491Z,37.75
2023-01-17T21:25:00.732Z,35.50
2023-01-17T21:27:29.475Z,35.95
2023-01-17T21:30:00.786Z,39.22
2023-01-17T21:32:33.115Z,50.28
2023-01-17T21:35:08.332Z,53.90
2023-01-17T21:37:37.307Z,57.55
2023-01-17T21:40:06.183Z,68.95
2023-01-17T21:42:35.070Z,54.22
2023-01-17T21:45:03.810Z,63.58
2023-01-17T21:47:32.760Z,85.25
2023-01-17T21:50:01.205Z,91.82
2023-01-17T21:52:31.930Z,90.07
2023-01-17T21:55:26.626Z,77.22
2023-01-17T21:58:19.234Z,83.07
2023-01-17T22:01:28.553Z,84.00
2023-01-17T22:04:03.384Z,75.00
2023-01-17T22:06:42.455Z,80.35
2023-01-17T22:09:15.635Z,81.28
2023-01-17T22:11:44.187Z,77.80
2023-01-17T22:14:16.672Z,73.82
2023-01-17T22:16:46.063Z,67.07
2023-01-17T22:19:16.871Z,68.70
2023-01-17T22:21:52.186Z,48.63
2023-01-17T22:24:22.383Z,40.40
2023-01-17T22:26:50.768Z,37.95
2023-01-17T22:29:27.039Z,35.83
2023-01-17T22:32:05.442Z,37.03
2023-01-17T22:34:34.557Z,34.67
2023-01-17T22:37:04.802Z,39.55
2023-01-17T22:42:12.429Z,44.08
2023-01-17T22:44:41.115Z,48.00
2023-01-17T22:47:24.293Z,94.93
2023-01-17T22:49:53.160Z,50.72
2023-01-17T22:52:25.857Z,39.72
2023-01-17T22:54:54.567Z,39.85
2023-01-17T22:57:23.411Z,57.90
2023-01-17T22:59:51.982Z,64.85
2023-01-17T23:02:23.223Z,55.72
2023-01-17T23:04:52.227Z,52.65
2023-01-17T23:07:20.465Z,50.35
2023-01-17T23:09:52.745Z,53.00
2023-01-17T23:12:29.746Z,53.20
2023-01-17T23:15:22.358Z,56.75
2023-01-17T23:18:09.275Z,62.17
2023-01-17T23:20:37.932Z,69.55
2023-01-17T23:23:06.203Z,68.47
2023-01-17T23:25:36.461Z,66.65
2023-01-17T23:28:27.160Z,60.45
2023-01-17T23:31:03.232Z,56.25
2023-01-17T23:33:31.580Z,55.40
2023-01-17T23:36:00.257Z,57.97
2023-01-17T23:38:34.049Z,58.65
2023-01-17T23:41:26.792Z,60.78
2023-01-17T23:43:57.924Z,54.20
2023-01-17T23:46:27.258Z,59.28
2023-01-17T23:48:55.633Z,70.20
2023-01-17T23:51:24.153Z,71.50
2023-01-17T23:53:57.472Z,71.28
2023-01-17T23:56:26.198Z,71.95
2023-01-17T23:58:54.406Z,75.82
